sensor_id;sensor_type;location;lat;lon;timestamp;pressure;altitude;pressure_sealevel;temperature;humidity
4012;BME280;2020;48.682;9.024;2024-03-02T00:02:23;95288.06;;;4.31;99.51
4012;BME280;2020;48.682;9.024;2024-03-02T00:04:48;95290.78;;;4.30;99.26
4012;BME280;2020;48.682;9.024;2024-03-02T00:07:14;95285.78;;;4.28;99.37
4012;BME280;2020;48.682;9.024;2024-03-02T00:09:40;95287.25;;;4.31;99.67
4012;BME280;2020;48.682;9.024;2024-03-02T00:12:05;95285.63;;;4.30;99.25
4012;BME280;2020;48.682;9.024;2024-03-02T00:14:30;95288.06;;;4.31;99.32
4012;BME280;2020;48.682;9.024;2024-03-02T00:16:57;95283.47;;;4.25;99.76
4012;BME280;2020;48.682;9.024;2024-03-02T00:19:22;95291.38;;;4.23;99.82
4012;BME280;2020;48.682;9.024;2024-03-02T00:21:48;95292.16;;;4.24;100.00
4012;BME280;2020;48.682;9.024;2024-03-02T00:24:43;95290.53;;;4.23;99.95
4012;BME280;2020;48.682;9.024;2024-03-02T00:27:08;95294.38;;;4.19;100.00
4012;BME280;2020;48.682;9.024;2024-03-02T00:29:37;95288.94;;;4.22;100.00
4012;BME280;2020;48.682;9.024;2024-03-02T00:32:13;95286.44;;;4.30;99.78
4012;BME280;2020;48.682;9.024;2024-03-02T00:34:39;95290.91;;;4.28;99.69
4012;BME280;2020;48.682;9.024;2024-03-02T00:37:04;95279.38;;;4.32;99.13
4012;BME280;2020;48.682;9.024;2024-03-02T00:39:30;95288.63;;;4.25;99.78
4012;BME280;2020;48.682;9.024;2024-03-02T00:41:55;95289.16;;;4.29;99.76
4012;BME280;2020;48.682;9.024;2024-03-02T00:44:25;95290.84;;;4.20;99.87
4012;BME280;2020;48.682;9.024;2024-03-02T00:46:51;95285.69;;;4.20;100.00
4012;BME280;2020;48.682;9.024;2024-03-02T00:49:25;95281.94;;;4.14;100.00
4012;BME280;2020;48.682;9.024;2024-03-02T00:51:54;95289.22;;;4.19;100.00
4012;BME280;2020;48.682;9.024;2024-03-02T00:54:21;95285.97;;;4.17;100.00
4012;BME280;2020;48.682;9.024;2024-03-02T00:56:48;95287.09;;;4.14;100.00
4012;BME280;2020;48.682;9.024;2024-03-02T00:59:14;95286.25;;;4.14;100.00
4012;BME280;2020;48.682;9.024;2024-03-02T01:01:39;95287.88;;;4.15;100.00
4012;BME280;2020;48.682;9.024;2024-03-02T01:04:05;95289.50;;;4.16;100.00
4012;BME280;2020;48.682;9.024;2024-03-02T01:06:30;95284.34;;;4.16;100.00
4012;BME280;2020;48.682;9.024;2024-03-02T01:08:56;95289.22;;;4.19;100.00
4012;BME280;2020;48.682;9.024;2024-03-02T01:11:21;95291.78;;;4.19;100.00
4012;BME280;2020;48.682;9.024;2024-03-02T01:13:49;95289.22;;;4.19;100.00
4012;BME280;2020;48.682;9.024;2024-03-02T01:16:15;95282.72;;;4.15;100.00
4012;BME280;2020;48.682;9.024;2024-03-02T01:18:43;95278.41;;;4.15;100.00
4012;BME280;2020;48.682;9.024;2024-03-02T01:21:09;95286.25;;;4.14;100.00
4012;BME280;2020;48.682;9.024;2024-03-02T01:23:34;95280.97;;;4.15;100.00
4012;BME280;2020;48.682;9.024;2024-03-02T01:25:59;95282.44;;;4.18;100.00
4012;BME280;2020;48.682;9.024;2024-03-02T01:28:24;95279.19;;;4.16;100.00
4012;BME280;2020;48.682;9.024;2024-03-02T01:30:50;95277.56;;;4.15;100.00
4012;BME280;2020;48.682;9.024;2024-03-02T01:33:16;95278.41;;;4.15;100.00
4012;BME280;2020;48.682;9.024;2024-03-02T01:35:42;95273.75;;;4.19;100.00
4012;BME280;2020;48.682;9.024;2024-03-02T01:38:08;95272.13;;;4.18;100.00
4012;BME280;2020;48.682;9.024;2024-03-02T01:40:34;95271.47;;;4.16;100.00
4012;BME280;2020;48.682;9.024;2024-03-02T01:42:59;95275.16;;;4.13;100.00
4012;BME280;2020;48.682;9.024;2024-03-02T01:45:25;95277.75;;;4.13;100.00
4012;BME280;2020;48.682;9.024;2024-03-02T01:47:50;95275.66;;;4.17;100.00
4012;BME280;2020;48.682;9.024;2024-03-02T01:50:16;95277.28;;;4.18;100.00
4012;BME280;2020;48.682;9.024;2024-03-02T01:52:49;95274.28;;;4.22;100.00
4012;BME280;2020;48.682;9.024;2024-03-02T01:55:14;95273.75;;;4.19;100.00
4012;BME280;2020;48.682;9.024;2024-03-02T01:57:39;95271.56;;;4.24;100.00
4012;BME280;2020;48.682;9.024;2024-03-02T02:00:05;95268.03;;;4.25;100.00
4012;BME280;2020;48.682;9.024;2024-03-02T02:02:31;95267.22;;;4.24;100.00
4012;BME280;2020;48.682;9.024;2024-03-02T02:04:56;95269.94;;;4.23;100.00
4012;BME280;2020;48.682;9.024;2024-03-02T02:07:21;95272.13;;;4.18;100.00
4012;BME280;2020;48.682;9.024;2024-03-02T02:09:46;95273.75;;;4.19;100.00
4012;BME280;2020;48.682;9.024;2024-03-02T02:12:12;95281.06;;;4.23;100.00
4012;BME280;2020;48.682;9.024;2024-03-02T02:14:37;95280.78;;;4.27;100.00
4012;BME280;2020;48.682;9.024;2024-03-02T02:17:04;95276.63;;;4.16;100.00
4012;BME280;2020;48.682;9.024;2024-03-02T02:19:29;95266.84;;;4.19;100.00
4012;BME280;2020;48.682;9.024;2024-03-02T02:21:55;95265.06;;;4.20;100.00
4012;BME280;2020;48.682;9.024;2024-03-02T02:24:20;95265.38;;;4.17;100.00
4012;BME280;2020;48.682;9.024;2024-03-02T02:26:45;95268.00;;;4.07;100.00
4012;BME280;2020;48.682;9.024;2024-03-02T02:29:11;95254.91;;;4.00;100.00
4012;BME280;2020;48.682;9.024;2024-03-02T02:31:39;95260.34;;;3.97;100.00
4012;BME280;2020;48.682;9.024;2024-03-02T02:34:05;95251.66;;;3.98;100.00
4012;BME280;2020;48.682;9.024;2024-03-02T02:36:32;95251.94;;;3.95;100.00
4012;BME280;2020;48.682;9.024;2024-03-02T02:38:59;95238.69;;;3.90;100.00
4012;BME280;2020;48.682;9.024;2024-03-02T02:41:28;95235.44;;;3.88;100.00
4012;BME280;2020;48.682;9.024;2024-03-02T02:43:54;95237.88;;;3.89;100.00
4012;BME280;2020;48.682;9.024;2024-03-02T02:46:19;95235.16;;;3.91;100.00
4012;BME280;2020;48.682;9.024;2024-03-02T02:48:45;95239.50;;;3.90;100.00
4012;BME280;2020;48.682;9.024;2024-03-02T02:51:10;95234.88;;;3.94;100.00
4012;BME280;2020;48.682;9.024;2024-03-02T02:53:35;95245.75;;;3.88;100.00
4012;BME280;2020;48.682;9.024;2024-03-02T02:56:00;95243.56;;;3.93;100.00
4012;BME280;2020;48.682;9.024;2024-03-02T02:58:26;95245.47;;;3.91;100.00
4012;BME280;2020;48.682;9.024;2024-03-02T03:00:52;95245.59;;;3.89;100.00
4012;BME280;2020;48.682;9.024;2024-03-02T03:03:17;95247.38;;;3.89;100.00
4012;BME280;2020;48.682;9.024;2024-03-02T03:05:42;95249.41;;;3.85;100.00
4012;BME280;2020;48.682;9.024;2024-03-02T03:08:07;95247.66;;;3.86;100.00
4012;BME280;2020;48.682;9.024;2024-03-02T03:10:33;95247.94;;;3.83;100.00
4012;BME280;2020;48.682;9.024;2024-03-02T03:12:58;95246.91;;;3.75;100.00
4012;BME280;2020;48.682;9.024;2024-03-02T03:15:23;95251.75;;;3.78;100.00
4012;BME280;2020;48.682;9.024;2024-03-02T03:17:48;95251.75;;;3.78;100.00
4012;BME280;2020;48.682;9.024;2024-03-02T03:20:14;95255.97;;;3.70;99.69
4012;BME280;2020;48.682;9.024;2024-03-02T03:22:40;95246.69;;;3.59;100.00
4012;BME280;2020;48.682;9.024;2024-03-02T03:25:06;95251.91;;;3.39;100.00
4012;BME280;2020;48.682;9.024;2024-03-02T03:27:33;95255.06;;;3.23;100.00
4012;BME280;2020;48.682;9.024;2024-03-02T03:29:58;95253.00;;;3.27;100.00
4012;BME280;2020;48.682;9.024;2024-03-02T03:32:23;95251.94;;;3.19;100.00
4012;BME280;2020;48.682;9.024;2024-03-02T03:34:49;95254.94;;;3.15;100.00
4012;BME280;2020;48.682;9.024;2024-03-02T03:37:15;95254.13;;;3.14;100.00
4012;BME280;2020;48.682;9.024;2024-03-02T03:39:40;95252.78;;;3.20;100.00
4012;BME280;2020;48.682;9.024;2024-03-02T03:42:06;95250.31;;;3.18;100.00
4012;BME280;2020;48.682;9.024;2024-03-02T03:44:31;95238.41;;;3.17;100.00
4012;BME280;2020;48.682;9.024;2024-03-02T03:46:56;95246.25;;;3.26;100.00
4012;BME280;2020;48.682;9.024;2024-03-02T03:49:22;95251.16;;;3.09;100.00
4012;BME280;2020;48.682;9.024;2024-03-02T03:51:47;95249.03;;;3.04;100.00
4012;BME280;2020;48.682;9.024;2024-03-02T03:54:13;95251.72;;;3.03;100.00
4012;BME280;2020;48.682;9.024;2024-03-02T03:56:38;95253.91;;;2.98;100.00
4012;BME280;2020;48.682;9.024;2024-03-02T03:59:03;95244.72;;;2.95;100.00
4012;BME280;2020;48.682;9.024;2024-03-02T04:01:30;95253.09;;;2.97;100.00
4012;BME280;2020;48.682;9.024;2024-03-02T04:03:55;95245.78;;;2.92;100.00
4012;BME280;2020;48.682;9.024;2024-03-02T04:06:20;95243.09;;;2.94;100.00
4012;BME280;2020;48.682;9.024;2024-03-02T04:08:45;95245.00;;;2.92;100.00
4012;BME280;2020;48.682;9.024;2024-03-02T04:11:11;95242.81;;;2.97;100.00
4012;BME280;2020;48.682;9.024;2024-03-02T04:13:36;95239.41;;;3.06;100.00
4012;BME280;2020;48.682;9.024;2024-03-02T04:16:01;95237.91;;;3.14;100.00
4012;BME280;2020;48.682;9.024;2024-03-02T04:18:28;95250.59;;;3.15;100.00
4012;BME280;2020;48.682;9.024;2024-03-02T04:20:54;95250.59;;;3.15;100.00
4012;BME280;2020;48.682;9.024;2024-03-02T04:23:19;95250.31;;;3.18;100.00
4012;BME280;2020;48.682;9.024;2024-03-02T04:25:44;95250.88;;;3.12;100.00
4012;BME280;2020;48.682;9.024;2024-03-02T04:28:09;95250.31;;;3.18;100.00
4012;BME280;2020;48.682;9.024;2024-03-02T04:30:35;95255.59;;;3.27;100.00
4012;BME280;2020;48.682;9.024;2024-03-02T04:33:00;95256.25;;;3.29;100.00
4012;BME280;2020;48.682;9.024;2024-03-02T04:35:27;95257.38;;;3.16;100.00
4012;BME280;2020;48.682;9.024;2024-03-02T04:37:52;95255.19;;;3.21;100.00
4012;BME280;2020;48.682;9.024;2024-03-02T04:40:18;95249.81;;;3.05;100.00
4012;BME280;2020;48.682;9.024;2024-03-02T04:42:43;95241.97;;;3.06;100.00
4012;BME280;2020;48.682;9.024;2024-03-02T04:45:08;95246.03;;;3.09;100.00
4012;BME280;2020;48.682;9.024;2024-03-02T04:47:34;95249.81;;;3.05;100.00
4012;BME280;2020;48.682;9.024;2024-03-02T04:50:00;95239.81;;;3.02;100.00
4012;BME280;2020;48.682;9.024;2024-03-02T04:52:25;95244.16;;;2.91;100.00
4012;BME280;2020;48.682;9.024;2024-03-02T04:54:50;95251.19;;;2.89;100.00
4012;BME280;2020;48.682;9.024;2024-03-02T04:57:34;95252.31;;;2.87;100.00
4012;BME280;2020;48.682;9.024;2024-03-02T04:59:59;95251.47;;;2.86;100.00
4012;BME280;2020;48.682;9.024;2024-03-02T05:02:25;95257.97;;;2.71;100.00
4012;BME280;2020;48.682;9.024;2024-03-02T05:04:50;95260.16;;;2.66;100.00
4012;BME280;2020;48.682;9.024;2024-03-02T05:07:15;95255.56;;;2.59;100.00
4012;BME280;2020;48.682;9.024;2024-03-02T05:09:41;95247.72;;;2.51;100.00
4012;BME280;2020;48.682;9.024;2024-03-02T05:12:07;95259.34;;;2.55;100.00
4012;BME280;2020;48.682;9.024;2024-03-02T05:14:41;95254.47;;;2.62;100.00
4012;BME280;2020;48.682;9.024;2024-03-02T05:17:06;95253.28;;;2.66;100.00
4012;BME280;2020;48.682;9.024;2024-03-02T05:19:31;95260.16;;;2.66;100.00
4012;BME280;2020;48.682;9.024;2024-03-02T05:21:57;95254.06;;;2.67;100.00
4012;BME280;2020;48.682;9.024;2024-03-02T05:24:22;95262.84;;;2.74;100.00
4012;BME280;2020;48.682;9.024;2024-03-02T05:26:47;95260.97;;;2.76;100.00
4012;BME280;2020;48.682;9.024;2024-03-02T05:29:13;95263.94;;;2.81;100.00
4012;BME280;2020;48.682;9.024;2024-03-02T05:31:38;95264.88;;;2.80;100.00
4012;BME280;2020;48.682;9.024;2024-03-02T05:34:03;95275.03;;;2.72;100.00
4012;BME280;2020;48.682;9.024;2024-03-02T05:36:30;95259.06;;;2.78;100.00
4012;BME280;2020;48.682;9.024;2024-03-02T05:38:55;95275.03;;;2.72;100.00
4012;BME280;2020;48.682;9.024;2024-03-02T05:41:21;95279.09;;;2.65;100.00
4012;BME280;2020;48.682;9.024;2024-03-02T05:43:46;95269.34;;;2.58;100.00
4012;BME280;2020;48.682;9.024;2024-03-02T05:46:11;95273.25;;;2.53;100.00
4012;BME280;2020;48.682;9.024;2024-03-02T05:48:37;95274.47;;;2.58;100.00
4012;BME280;2020;48.682;9.024;2024-03-02T05:51:02;95277.59;;;2.52;100.00
4012;BME280;2020;48.682;9.024;2024-03-02T05:53:28;95275.28;;;2.49;100.00
4012;BME280;2020;48.682;9.024;2024-03-02T05:55:53;95269.06;;;2.42;100.00
4012;BME280;2020;48.682;9.024;2024-03-02T05:58:21;95265.81;;;2.40;100.00
4012;BME280;2020;48.682;9.024;2024-03-02T06:00:49;95262.31;;;2.41;100.00
4012;BME280;2020;48.682;9.024;2024-03-02T06:03:14;95279.06;;;2.45;100.00
4012;BME280;2020;48.682;9.024;2024-03-02T06:05:40;95275.03;;;2.52;100.00
4012;BME280;2020;48.682;9.024;2024-03-02T06:08:06;95274.47;;;2.58;100.00
4012;BME280;2020;48.682;9.024;2024-03-02T06:10:31;95265.69;;;2.61;100.00
4012;BME280;2020;48.682;9.024;2024-03-02T06:12:56;95273.66;;;2.68;100.00
4012;BME280;2020;48.682;9.024;2024-03-02T06:15:24;95277.19;;;2.67;100.00
4012;BME280;2020;48.682;9.024;2024-03-02T06:17:49;95279.50;;;2.70;100.00
4012;BME280;2020;48.682;9.024;2024-03-02T06:20:14;95282.06;;;2.70;100.00
4012;BME280;2020;48.682;9.024;2024-03-02T06:22:39;95280.44;;;2.69;100.00
4012;BME280;2020;48.682;9.024;2024-03-02T06:25:05;95293.41;;;2.77;100.00
4012;BME280;2020;48.682;9.024;2024-03-02T06:27:30;95295.72;;;2.80;100.00
4012;BME280;2020;48.682;9.024;2024-03-02T06:29:55;95298.56;;;2.87;100.00
4012;BME280;2020;48.682;9.024;2024-03-02T06:32:20;95298.03;;;2.93;100.00
4012;BME280;2020;48.682;9.024;2024-03-02T06:34:46;95297.31;;;3.01;100.00
4012;BME280;2020;48.682;9.024;2024-03-02T06:37:11;95291.38;;;3.00;100.00
4012;BME280;2020;48.682;9.024;2024-03-02T06:39:36;95301.50;;;3.02;100.00
4012;BME280;2020;48.682;9.024;2024-03-02T06:42:02;95292.44;;;2.98;100.00
4012;BME280;2020;48.682;9.024;2024-03-02T06:44:27;95301.25;;;3.05;100.00
4012;BME280;2020;48.682;9.024;2024-03-02T06:46:52;95303.13;;;3.03;100.00
4012;BME280;2020;48.682;9.024;2024-03-02T06:49:17;95301.50;;;3.02;100.00
4012;BME280;2020;48.682;9.024;2024-03-02T06:51:43;95303.69;;;2.97;100.00
4012;BME280;2020;48.682;9.024;2024-03-02T06:54:09;95304.22;;;3.00;100.00
4012;BME280;2020;48.682;9.024;2024-03-02T06:56:34;95304.47;;;3.07;100.00
4012;BME280;2020;48.682;9.024;2024-03-02T06:58:59;95304.59;;;3.15;100.00
4012;BME280;2020;48.682;9.024;2024-03-02T07:01:24;95305.66;;;3.22;100.00
4012;BME280;2020;48.682;9.024;2024-03-02T07:03:51;95301.47;;;3.41;100.00
4012;BME280;2020;48.682;9.024;2024-03-02T07:06:16;95308.09;;;3.82;100.00
4012;BME280;2020;48.682;9.024;2024-03-02T07:08:41;95303.16;;;3.98;100.00
4012;BME280;2020;48.682;9.024;2024-03-02T07:11:07;95299.44;;;4.10;100.00
4012;BME280;2020;48.682;9.024;2024-03-02T07:13:32;95299.88;;;4.24;100.00
4012;BME280;2020;48.682;9.024;2024-03-02T07:15:57;95298.88;;;4.53;100.00
4012;BME280;2020;48.682;9.024;2024-03-02T07:18:29;95300.31;;;5.02;100.00
4012;BME280;2020;48.682;9.024;2024-03-02T07:20:55;95303.56;;;4.67;99.66
4012;BME280;2020;48.682;9.024;2024-03-02T07:23:23;95299.94;;;4.42;99.58
4012;BME280;2020;48.682;9.024;2024-03-02T07:25:52;95295.94;;;4.30;100.00
4012;BME280;2020;48.682;9.024;2024-03-02T07:28:19;95297.31;;;4.24;100.00
4012;BME280;2020;48.682;9.024;2024-03-02T07:30:45;95295.69;;;4.23;100.00
4012;BME280;2020;48.682;9.024;2024-03-02T07:33:10;95293.00;;;4.24;100.00
4012;BME280;2020;48.682;9.024;2024-03-02T07:35:36;95295.41;;;4.26;99.67
4012;BME280;2020;48.682;9.024;2024-03-02T07:38:01;95290.25;;;4.26;99.59
4012;BME280;2020;48.682;9.024;2024-03-02T07:40:26;95295.13;;;4.29;98.93
4012;BME280;2020;48.682;9.024;2024-03-02T07:42:52;95293.19;;;4.31;98.85
4012;BME280;2020;48.682;9.024;2024-03-02T07:45:17;95299.69;;;4.35;98.60
4012;BME280;2020;48.682;9.024;2024-03-02T07:47:42;95301.31;;;4.36;98.67
4012;BME280;2020;48.682;9.024;2024-03-02T07:50:08;95301.00;;;4.39;97.77
4012;BME280;2020;48.682;9.024;2024-03-02T07:52:34;95302.06;;;4.47;98.33
4012;BME280;2020;48.682;9.024;2024-03-02T07:54:59;95297.34;;;4.60;98.04
4012;BME280;2020;48.682;9.024;2024-03-02T07:57:25;95313.19;;;4.83;97.58
4012;BME280;2020;48.682;9.024;2024-03-02T07:59:50;95314.22;;;4.91;95.21
4012;BME280;2020;48.682;9.024;2024-03-02T08:02:15;95311.63;;;5.09;95.54
4012;BME280;2020;48.682;9.024;2024-03-02T08:04:41;95303.97;;;5.17;93.94
4012;BME280;2020;48.682;9.024;2024-03-02T08:07:06;95300.94;;;5.48;94.49
4012;BME280;2020;48.682;9.024;2024-03-02T08:09:31;95306.81;;;5.59;91.86
4012;BME280;2020;48.682;9.024;2024-03-02T08:11:57;95298.44;;;5.65;91.71
4012;BME280;2020;48.682;9.024;2024-03-02T08:14:23;95301.09;;;5.81;91.00
4012;BME280;2020;48.682;9.024;2024-03-02T08:16:48;95301.91;;;6.08;91.24
4012;BME280;2020;48.682;9.024;2024-03-02T08:19:14;95302.97;;;6.32;89.23
4012;BME280;2020;48.682;9.024;2024-03-02T08:21:39;95300.53;;;6.39;86.54
4012;BME280;2020;48.682;9.024;2024-03-02T08:24:05;95292.16;;;6.45;86.16
4012;BME280;2020;48.682;9.024;2024-03-02T08:26:31;95293.66;;;6.56;85.00
4012;BME280;2020;48.682;9.024;2024-03-02T08:28:57;95283.81;;;6.76;83.93
4012;BME280;2020;48.682;9.024;2024-03-02T08:31:22;95288.81;;;6.94;83.31
4012;BME280;2020;48.682;9.024;2024-03-02T08:33:48;95286.56;;;7.08;80.48
4012;BME280;2020;48.682;9.024;2024-03-02T08:36:13;95292.38;;;7.18;79.43
4012;BME280;2020;48.682;9.024;2024-03-02T08:38:39;95294.00;;;7.36;78.07
4012;BME280;2020;48.682;9.024;2024-03-02T08:41:04;95291.72;;;7.49;78.72
4012;BME280;2020;48.682;9.024;2024-03-02T08:43:30;95298.50;;;7.58;78.70
4012;BME280;2020;48.682;9.024;2024-03-02T08:45:55;95299.41;;;7.82;77.98
4012;BME280;2020;48.682;9.024;2024-03-02T08:48:20;95297.66;;;8.14;74.33
4012;BME280;2020;48.682;9.024;2024-03-02T08:50:46;95295.66;;;8.25;71.62
4012;BME280;2020;48.682;9.024;2024-03-02T08:53:11;95297.50;;;8.47;74.92
4012;BME280;2020;48.682;9.024;2024-03-02T08:55:37;95293.44;;;8.53;71.04
4012;BME280;2020;48.682;9.024;2024-03-02T08:58:02;95285.75;;;8.68;70.44
4012;BME280;2020;48.682;9.024;2024-03-02T09:00:27;95289.75;;;8.39;69.08
4012;BME280;2020;48.682;9.024;2024-03-02T09:02:53;95282.34;;;8.68;69.75
4012;BME280;2020;48.682;9.024;2024-03-02T09:05:18;95290.31;;;8.66;69.60
4012;BME280;2020;48.682;9.024;2024-03-02T09:07:44;95286.63;;;8.84;68.44
4012;BME280;2020;48.682;9.024;2024-03-02T09:10:09;95286.41;;;9.09;69.25
4012;BME280;2020;48.682;9.024;2024-03-02T09:12:35;95281.59;;;9.20;68.40
4012;BME280;2020;48.682;9.024;2024-03-02T09:15:04;95280.16;;;9.56;68.81
4012;BME280;2020;48.682;9.024;2024-03-02T09:17:29;95275.50;;;9.66;68.29
4012;BME280;2020;48.682;9.024;2024-03-02T09:19:55;95262.34;;;9.68;67.84
4012;BME280;2020;48.682;9.024;2024-03-02T09:22:20;95254.34;;;9.70;66.56
4012;BME280;2020;48.682;9.024;2024-03-02T09:24:46;95262.59;;;9.88;67.49
4012;BME280;2020;48.682;9.024;2024-03-02T09:27:11;95266.16;;;9.87;66.01
4012;BME280;2020;48.682;9.024;2024-03-02T09:29:37;95266.00;;;10.04;66.06
4012;BME280;2020;48.682;9.024;2024-03-02T09:32:02;95258.19;;;10.04;65.57
4012;BME280;2020;48.682;9.024;2024-03-02T09:34:28;95250.91;;;10.14;66.22
4012;BME280;2020;48.682;9.024;2024-03-02T09:36:53;95257.94;;;10.35;65.41
4012;BME280;2020;48.682;9.024;2024-03-02T09:39:18;95260.22;;;10.23;62.73
4012;BME280;2020;48.682;9.024;2024-03-02T09:41:44;95264.41;;;10.39;63.37
4012;BME280;2020;48.682;9.024;2024-03-02T09:44:09;95261.78;;;10.55;62.13
4012;BME280;2020;48.682;9.024;2024-03-02T09:46:35;95255.97;;;10.74;61.49
4012;BME280;2020;48.682;9.024;2024-03-02T09:49:02;95266.84;;;11.28;59.70
4012;BME280;2020;48.682;9.024;2024-03-02T09:51:28;95262.88;;;11.32;58.93
4012;BME280;2020;48.682;9.024;2024-03-02T09:53:54;95240.88;;;11.41;59.63
4012;BME280;2020;48.682;9.024;2024-03-02T09:56:21;95245.63;;;11.31;59.27
4012;BME280;2020;48.682;9.024;2024-03-02T09:58:46;95241.72;;;11.49;57.66
4012;BME280;2020;48.682;9.024;2024-03-02T10:01:12;95246.66;;;11.72;58.75
